Time;durP1;ratioP1;P1;durP2;ratioP2;P2;SDS_P1;SDS_P2;PMS_P1;PMS_P2;Temp;Humidity;BMP_temperature;BMP_pressure;BME280_temperature;BME280_humidity;BME280_pressure;Samples;Min_cycle;Max_cycle;Signal;HPM_P1;HPM_P2
2021/12/11 00:00:28;;;;;;;8.68;4.63;;;-2.20;99.90;;;;;;4813297;29;20080;-75
2021/12/11 00:03:07;;;;;;;6.75;3.90;;;-2.10;99.90;;;;;;4813058;29;20058;-75
2021/12/11 00:05:35;;;;;;;7.22;4.05;;;-2.10;99.90;;;;;;4798625;29;20050;-75
2021/12/11 00:08:03;;;;;;;7.82;5.13;;;-2.10;99.90;;;;;;4814240;29;20058;-75
2021/12/11 00:10:44;;;;;;;9.00;4.68;;;-2.10;99.90;;;;;;4813978;29;20042;-75
2021/12/11 00:13:16;;;;;;;6.97;4.15;;;-2.10;99.90;;;;;;4811147;29;20157;-75
2021/12/11 00:15:46;;;;;;;6.65;3.55;;;-2.10;99.90;;;;;;4814406;29;20122;-75
2021/12/11 00:18:22;;;;;;;5.85;3.80;;;-2.10;99.90;;;;;;4799430;29;20034;-75
2021/12/11 00:21:08;;;;;;;5.88;3.65;;;-2.20;99.90;;;;;;4799335;29;20045;-75
2021/12/11 00:23:38;;;;;;;8.13;4.47;;;-2.20;99.90;;;;;;4813212;29;20049;-75
2021/12/11 00:26:08;;;;;;;6.63;4.35;;;-2.20;99.90;;;;;;4829958;29;20050;-75
2021/12/11 00:28:46;;;;;;;8.75;5.55;;;-2.20;99.90;;;;;;4810481;29;20050;-75
2021/12/11 00:31:12;;;;;;;7.82;4.53;;;-2.30;99.90;;;;;;4814438;29;20045;-75
2021/12/11 00:33:38;;;;;;;9.20;4.70;;;-2.30;99.90;;;;;;4814196;29;20432;-75
2021/12/11 00:36:12;;;;;;;7.75;4.47;;;-2.30;99.90;;;;;;4814070;29;20080;-74
2021/12/11 00:38:39;;;;;;;15.85;7.53;;;-2.30;99.90;;;;;;4814186;29;20057;-75
2021/12/11 00:41:08;;;;;;;9.90;5.38;;;-2.30;99.90;;;;;;4813902;29;20050;-75
2021/12/11 00:43:35;;;;;;;10.43;5.75;;;-2.30;99.90;;;;;;4798309;29;20038;-75
2021/12/11 00:46:06;;;;;;;12.75;6.80;;;-2.30;99.90;;;;;;4810435;29;20150;-75
2021/12/11 00:48:32;;;;;;;10.68;6.70;;;-2.20;99.90;;;;;;4813997;29;20126;-75
2021/12/11 00:51:11;;;;;;;10.65;6.15;;;-2.20;99.90;;;;;;4799547;29;20046;-75
2021/12/11 00:53:47;;;;;;;13.43;7.50;;;-2.20;99.90;;;;;;4813208;29;20129;-74
2021/12/11 00:56:24;;;;;;;9.80;6.03;;;-2.30;99.90;;;;;;4814073;29;20475;-75
2021/12/11 00:58:53;;;;;;;10.27;6.05;;;-2.30;99.90;;;;;;4814012;29;20644;-75
2021/12/11 01:01:24;;;;;;;10.77;6.20;;;-2.30;99.90;;;;;;4816307;29;20447;-75
2021/12/11 01:03:58;;;;;;;8.95;5.50;;;-2.30;99.90;;;;;;4828316;29;20413;-75
2021/12/11 01:06:37;;;;;;;9.18;5.05;;;-2.30;99.90;;;;;;4829120;29;20684;-75
2021/12/11 01:09:17;;;;;;;7.82;4.40;;;-2.30;99.90;;;;;;4814143;29;20050;-74
2021/12/11 01:11:47;;;;;;;7.15;4.30;;;-2.30;99.90;;;;;;4819817;29;20083;-74
2021/12/11 01:14:36;;;;;;;7.53;3.97;;;-2.40;99.90;;;;;;4805770;29;20129;-73
2021/12/11 01:17:19;;;;;;;4.97;3.08;;;-2.40;99.90;;;;;;4820717;29;20046;-75
2021/12/11 01:19:49;;;;;;;5.28;2.60;;;-2.40;99.90;;;;;;4802261;29;20046;-73
2021/12/11 01:22:32;;;;;;;4.75;3.40;;;-2.40;99.90;;;;;;4806832;29;20053;-74
2021/12/11 01:25:28;;;;;;;6.85;3.78;;;-2.40;99.90;;;;;;4836088;29;20054;-74
2021/12/11 01:28:00;;;;;;;7.30;3.90;;;-2.30;99.90;;;;;;4809891;29;20054;-74
2021/12/11 01:30:36;;;;;;;8.85;4.70;;;-2.40;99.90;;;;;;4818170;29;20053;-74
2021/12/11 01:33:05;;;;;;;6.73;3.97;;;-2.40;99.90;;;;;;4821631;29;20046;-74
2021/12/11 01:35:30;;;;;;;7.15;4.22;;;-2.40;99.90;;;;;;4804403;29;20556;-74
2021/12/11 01:38:22;;;;;;;6.65;4.07;;;-2.50;99.90;;;;;;4803418;29;20054;-74
2021/12/11 01:40:50;;;;;;;9.23;5.18;;;-2.50;99.90;;;;;;4814944;29;20043;-74
2021/12/11 01:43:19;;;;;;;7.05;4.00;;;-2.50;99.90;;;;;;4818175;29;20493;-74
2021/12/11 01:45:51;;;;;;;7.90;4.07;;;-2.50;99.90;;;;;;4821305;29;20465;-74
2021/12/11 01:48:25;;;;;;;7.13;3.78;;;-2.50;99.90;;;;;;4821029;29;20130;-74
2021/12/11 01:51:28;;;;;;;7.43;4.10;;;-2.60;99.90;;;;;;4820281;29;20049;-73
2021/12/11 01:54:00;;;;;;;7.82;4.40;;;-2.60;99.90;;;;;;4819308;29;20062;-73
2021/12/11 01:56:29;;;;;;;8.00;4.60;;;-2.60;99.90;;;;;;4818461;29;20049;-74
2021/12/11 01:58:58;;;;;;;7.38;3.70;;;-2.50;99.90;;;;;;4820151;29;20130;-74
2021/12/11 02:01:35;;;;;;;8.68;3.90;;;-2.50;99.90;;;;;;4805504;29;20053;-74
2021/12/11 02:04:04;;;;;;;5.95;3.83;;;-2.50;99.90;;;;;;4803265;29;20039;-74
2021/12/11 02:06:36;;;;;;;7.03;3.92;;;-2.40;99.90;;;;;;4823447;29;20057;-74
2021/12/11 02:09:21;;;;;;;12.30;6.90;;;-2.40;99.90;;;;;;4818655;29;20488;-74
2021/12/11 02:11:51;;;;;;;10.23;5.43;;;-2.40;99.90;;;;;;4820708;29;20057;-73
2021/12/11 02:14:25;;;;;;;10.30;5.35;;;-2.40;99.90;;;;;;4819020;29;20047;-74
2021/12/11 02:16:52;;;;;;;8.18;4.70;;;-2.40;99.90;;;;;;4820364;29;20138;-73
2021/12/11 02:19:30;;;;;;;7.38;4.30;;;-2.50;99.90;;;;;;4806292;29;20454;-74
2021/12/11 02:22:13;;;;;;;7.97;4.20;;;-2.60;99.90;;;;;;4818761;29;20129;-74
2021/12/11 02:24:48;;;;;;;6.60;3.72;;;-2.50;99.90;;;;;;4834731;29;20049;-74
2021/12/11 02:27:18;;;;;;;8.68;4.80;;;-2.60;99.90;;;;;;4820312;29;20507;-74
2021/12/11 02:29:51;;;;;;;9.60;5.25;;;-2.60;99.90;;;;;;4835371;29;20084;-74
2021/12/11 02:32:27;;;;;;;11.18;6.40;;;-2.60;99.90;;;;;;4820519;29;20477;-73
2021/12/11 02:35:03;;;;;;;7.13;4.27;;;-2.60;99.90;;;;;;4818930;29;20187;-74
2021/12/11 02:37:38;;;;;;;7.60;4.38;;;-2.60;99.90;;;;;;4820057;29;20382;-74
2021/12/11 02:40:14;;;;;;;7.97;3.97;;;-2.60;99.90;;;;;;4818384;29;20064;-79
2021/12/11 02:42:53;;;;;;;6.18;3.70;;;-2.70;99.90;;;;;;4837327;29;20042;-80
2021/12/11 02:45:45;;;;;;;7.25;3.75;;;-2.70;99.90;;;;;;4823397;29;20075;-80
2021/12/11 02:48:34;;;;;;;6.82;3.97;;;-2.60;99.90;;;;;;4821083;29;20133;-80
2021/12/11 02:51:11;;;;;;;10.77;6.30;;;-2.60;99.90;;;;;;4821944;29;20393;-80
2021/12/11 02:53:50;;;;;;;9.85;6.28;;;-2.50;99.90;;;;;;4823550;29;20050;-80
2021/12/11 02:56:30;;;;;;;9.25;5.38;;;-2.50;99.90;;;;;;4834404;29;20034;-79
2021/12/11 02:59:01;;;;;;;8.90;5.30;;;-2.50;99.90;;;;;;4817415;29;20042;-79
2021/12/11 03:01:35;;;;;;;10.90;6.45;;;-2.40;99.90;;;;;;4827571;29;20065;-79
2021/12/11 03:04:14;;;;;;;8.75;5.32;;;-2.40;99.90;;;;;;4817269;29;20508;-79
2021/12/11 03:06:44;;;;;;;9.02;4.53;;;-2.30;99.90;;;;;;4816943;29;20058;-80
2021/12/11 03:09:18;;;;;;;7.38;4.32;;;-2.30;99.90;;;;;;4818196;29;20054;-80
2021/12/11 03:11:44;;;;;;;8.20;4.40;;;-2.40;99.90;;;;;;4834352;29;20393;-80
2021/12/11 03:14:13;;;;;;;;;;;-2.30;99.90;;;;;;4817891;29;20069;-80
2021/12/11 03:16:40;;;;;;;6.45;3.72;;;-2.30;99.90;;;;;;4817422;29;20058;-81
2021/12/11 03:19:14;;;;;;;6.60;4.45;;;-2.30;99.90;;;;;;4813668;29;20047;-79
2021/12/11 03:21:41;;;;;;;8.20;4.53;;;-2.30;99.90;;;;;;4821882;29;20531;-79
2021/12/11 03:24:08;;;;;;;9.45;5.00;;;-2.30;99.90;;;;;;4821064;29;20073;-79
2021/12/11 03:26:35;;;;;;;6.43;4.20;;;-2.30;99.90;;;;;;4799887;29;20050;-80
2021/12/11 03:29:02;;;;;;;7.93;5.03;;;-2.40;99.90;;;;;;4792354;29;20050;-79
2021/12/11 03:31:28;;;;;;;8.52;4.80;;;-2.30;99.90;;;;;;4804872;29;20050;-79
2021/12/11 03:33:57;;;;;;;8.80;4.82;;;-2.30;99.90;;;;;;4814982;29;20030;-79
2021/12/11 03:36:25;;;;;;;7.18;4.68;;;-2.30;99.90;;;;;;4817205;29;20058;-79
2021/12/11 03:38:55;;;;;;;7.65;4.10;;;-2.40;99.90;;;;;;4819511;29;20141;-79
2021/12/11 03:41:23;;;;;;;7.13;4.03;;;-2.40;99.90;;;;;;4803100;29;20050;-79
2021/12/11 03:43:50;;;;;;;6.75;3.97;;;-2.50;99.90;;;;;;4822574;29;20034;-79
2021/12/11 03:46:17;;;;;;;13.50;7.88;;;-2.50;99.90;;;;;;4821674;29;20038;-80
2021/12/11 03:48:47;;;;;;;15.02;8.43;;;-2.40;99.90;;;;;;4807073;29;20034;-79
2021/12/11 03:51:18;;;;;;;17.10;10.25;;;-2.30;99.90;;;;;;4804807;29;20464;-79
2021/12/11 03:53:44;;;;;;;17.17;9.20;;;-2.20;99.90;;;;;;4804497;29;20049;-79
2021/12/11 03:56:13;;;;;;;11.15;7.25;;;-2.30;99.90;;;;;;4822826;29;20553;-79
2021/12/11 03:58:48;;;;;;;13.45;8.13;;;-2.30;99.90;;;;;;4820238;29;20046;-79
2021/12/11 04:01:19;;;;;;;12.73;7.70;;;-2.40;99.90;;;;;;4825936;29;20208;-80
2021/12/11 04:03:47;;;;;;;16.80;9.40;;;-2.40;99.90;;;;;;4827753;29;20106;-79
2021/12/11 04:06:14;;;;;;;15.77;8.82;;;-2.40;99.90;;;;;;4836942;29;20072;-79
2021/12/11 04:08:42;;;;;;;14.63;8.68;;;-2.40;99.90;;;;;;4810087;29;20053;-80
2021/12/11 04:11:17;;;;;;;22.73;11.05;;;-2.30;99.90;;;;;;4823708;29;20045;-80
2021/12/11 04:13:45;;;;;;;16.35;9.55;;;-2.10;99.90;;;;;;4812459;29;20046;-79
2021/12/11 04:16:11;;;;;;;15.43;8.82;;;-2.10;99.90;;;;;;4806326;29;20054;-80
2021/12/11 04:18:37;;;;;;;12.55;6.68;;;-2.20;99.90;;;;;;4806499;29;20433;-80
2021/12/11 04:21:03;;;;;;;13.57;7.72;;;-2.30;99.90;;;;;;4821096;29;20071;-80
2021/12/11 04:23:29;;;;;;;;;;;-2.20;99.90;;;;;;4825355;29;20050;-79
2021/12/11 04:25:57;;;;;;;8.88;5.40;;;-2.10;99.90;;;;;;4819081;29;20016;-79
2021/12/11 04:28:26;;;;;;;9.32;4.90;;;-2.20;99.90;;;;;;4821213;29;20137;-79
2021/12/11 04:31:02;;;;;;;7.80;4.82;;;-2.20;99.90;;;;;;4820043;29;20043;-79
2021/12/11 04:33:28;;;;;;;6.90;4.35;;;-2.30;99.90;;;;;;4806490;29;20111;-79
2021/12/11 04:35:54;;;;;;;6.72;4.22;;;-2.40;99.90;;;;;;4821795;29;20042;-79
2021/12/11 04:38:20;;;;;;;6.60;3.85;;;-2.50;99.90;;;;;;4806203;29;20483;-79
2021/12/11 04:40:51;;;;;;;7.35;4.22;;;-2.50;99.90;;;;;;4795525;29;20461;-79
2021/12/11 04:43:20;;;;;;;7.30;4.05;;;-2.60;99.90;;;;;;4809169;29;20043;-79
2021/12/11 04:45:56;;;;;;;7.82;4.95;;;-2.60;99.90;;;;;;4806842;29;20073;-80
2021/12/11 04:48:37;;;;;;;7.30;4.37;;;-2.60;99.90;;;;;;4821606;29;20381;-79
2021/12/11 04:51:29;;;;;;;8.27;4.60;;;-2.70;99.90;;;;;;4805924;29;20053;-80
2021/12/11 04:54:21;;;;;;;8.82;5.55;;;-2.70;99.90;;;;;;4811981;29;20413;-80
2021/12/11 04:59:46;;;;;;;7.03;4.28;;;-2.90;99.90;;;;;;4818118;29;20051;-80
2021/12/11 05:10:26;;;;;;;11.07;6.32;;;-3.00;99.90;;;;;;4816281;29;20404;-80
2021/12/11 05:12:55;;;;;;;11.00;6.03;;;-3.00;99.90;;;;;;4817847;29;20058;-80
2021/12/11 05:15:24;;;;;;;10.00;5.72;;;-2.90;99.90;;;;;;4815566;29;20453;-80
2021/12/11 05:17:51;;;;;;;10.27;6.30;;;-2.90;99.90;;;;;;4819046;29;20133;-80
2021/12/11 05:20:19;;;;;;;;;;;-2.90;99.90;;;;;;4817418;29;20397;-80
2021/12/11 05:22:45;;;;;;;10.30;6.15;;;-2.90;99.90;;;;;;4803591;29;19925;-80
2021/12/11 05:25:12;;;;;;;10.82;6.20;;;-2.90;99.90;;;;;;4804000;29;20042;-81
2021/12/11 05:27:41;;;;;;;9.93;6.25;;;-3.00;99.90;;;;;;4816530;29;20043;-80
2021/12/11 05:30:12;;;;;;;10.65;5.85;;;-3.00;99.90;;;;;;4833233;29;20504;-80
2021/12/11 05:32:38;;;;;;;9.90;5.85;;;-3.00;99.90;;;;;;4822188;29;20133;-81
2021/12/11 05:35:06;;;;;;;9.57;5.60;;;-3.00;99.90;;;;;;4818491;29;20082;-80
2021/12/11 05:37:32;;;;;;;9.63;5.20;;;-3.00;99.90;;;;;;4833353;29;20042;-81
2021/12/11 05:39:57;;;;;;;6.40;4.15;;;-3.00;99.90;;;;;;4816781;29;20115;-81
2021/12/11 05:42:23;;;;;;;8.52;4.93;;;-3.10;99.90;;;;;;4801732;29;20133;-82
2021/12/11 05:44:49;;;;;;;10.70;5.65;;;-3.10;99.90;;;;;;4802599;29;20111;-79
2021/12/11 05:47:16;;;;;;;9.63;5.38;;;-3.10;99.90;;;;;;4815579;29;20065;-80
2021/12/11 05:49:45;;;;;;;9.27;5.95;;;-3.10;99.90;;;;;;4801906;29;20046;-82
2021/12/11 05:52:11;;;;;;;9.70;5.65;;;-3.20;99.90;;;;;;4821489;29;20089;-82
2021/12/11 05:54:39;;;;;;;9.35;5.47;;;-3.20;99.90;;;;;;4806075;29;20082;-82
2021/12/11 05:57:09;;;;;;;8.90;5.00;;;-3.10;99.90;;;;;;4809045;29;20042;-82
2021/12/11 05:59:35;;;;;;;7.95;4.90;;;-3.10;99.90;;;;;;4815155;29;20508;-82
2021/12/11 06:02:04;;;;;;;;;;;-3.10;99.90;;;;;;4810695;29;20106;-82
2021/12/11 06:04:33;;;;;;;6.38;3.70;;;-3.10;99.90;;;;;;4827166;29;19927;-82
2021/12/11 06:07:01;;;;;;;8.07;4.32;;;-3.10;99.90;;;;;;4807753;29;20565;-82
2021/12/11 06:09:28;;;;;;;6.75;3.83;;;-3.10;99.90;;;;;;4824035;29;20125;-81
2021/12/11 06:11:58;;;;;;;8.25;4.57;;;-3.00;99.90;;;;;;4824349;29;20061;-81
2021/12/11 06:14:24;;;;;;;15.38;7.68;;;-2.90;99.90;;;;;;4809017;29;20093;-81
2021/12/11 06:16:53;;;;;;;13.85;7.97;;;-2.80;99.90;;;;;;4808416;29;20086;-80
2021/12/11 06:19:21;;;;;;;12.05;7.57;;;-2.90;99.90;;;;;;4816543;29;20686;-79
2021/12/11 06:21:48;;;;;;;11.75;6.45;;;-2.90;99.90;;;;;;4831365;29;20110;-81
2021/12/11 06:24:14;;;;;;;8.48;5.35;;;-2.90;99.90;;;;;;4821808;29;20047;-82
2021/12/11 06:26:40;;;;;;;10.40;5.38;;;-2.90;99.90;;;;;;4825259;29;20460;-80
2021/12/11 06:29:06;;;;;;;9.52;5.97;;;-3.00;99.90;;;;;;4819985;29;20122;-82
2021/12/11 06:31:32;;;;;;;10.65;6.10;;;-2.90;99.90;;;;;;4823724;29;20042;-82
2021/12/11 06:33:57;;;;;;;9.88;5.93;;;-2.80;99.90;;;;;;4808443;29;20038;-82
2021/12/11 06:36:24;;;;;;;7.63;4.68;;;-2.80;99.90;;;;;;4809185;29;20057;-82
2021/12/11 06:38:55;;;;;;;7.47;4.72;;;-2.90;99.90;;;;;;4807977;29;20065;-82
2021/12/11 06:41:25;;;;;;;6.70;4.25;;;-2.90;99.90;;;;;;4818512;29;20050;-81
2021/12/11 06:43:51;;;;;;;9.40;5.88;;;-2.90;99.90;;;;;;4820838;29;20378;-83
2021/12/11 06:46:18;;;;;;;10.10;5.38;;;-2.90;99.90;;;;;;4820318;29;20042;-84
2021/12/11 06:48:43;;;;;;;8.35;5.18;;;-2.90;99.90;;;;;;4835153;29;20569;-83
2021/12/11 06:51:09;;;;;;;12.20;7.88;;;-3.00;99.90;;;;;;4805534;29;20129;-83
2021/12/11 06:53:43;;;;;;;14.60;8.07;;;-2.80;99.90;;;;;;4818275;29;20147;-83
2021/12/11 06:56:11;;;;;;;16.80;9.27;;;-2.80;99.90;;;;;;4818735;29;20049;-83
2021/12/11 06:58:37;;;;;;;16.13;7.82;;;-2.70;99.90;;;;;;4804917;29;20126;-83
2021/12/11 07:01:05;;;;;;;13.52;7.88;;;-2.70;99.90;;;;;;4805686;29;20400;-83
2021/12/11 07:03:31;;;;;;;16.35;8.80;;;-2.70;99.90;;;;;;4804825;29;20053;-83
2021/12/11 07:05:58;;;;;;;12.45;7.88;;;-2.60;99.90;;;;;;4820126;29;20079;-83
2021/12/11 07:08:26;;;;;;;;;;;-2.70;99.90;;;;;;4804453;29;20046;-84
2021/12/11 07:10:51;;;;;;;13.55;6.97;;;-2.70;99.90;;;;;;4805195;29;20041;-83
2021/12/11 07:13:17;;;;;;;11.02;6.32;;;-2.70;99.90;;;;;;4820308;29;20140;-83
2021/12/11 07:15:43;;;;;;;8.95;5.70;;;-2.80;99.90;;;;;;4804684;29;20473;-83
2021/12/11 07:18:10;;;;;;;9.25;5.30;;;-2.90;99.90;;;;;;4820048;29;20046;-82
2021/12/11 07:20:36;;;;;;;15.10;8.57;;;-2.90;99.90;;;;;;4820550;29;20038;-83
2021/12/11 07:23:04;;;;;;;20.75;11.68;;;-2.80;99.90;;;;;;4835089;29;20110;-82
2021/12/11 07:25:37;;;;;;;15.80;9.30;;;-2.70;99.90;;;;;;4821309;29;20073;-82
2021/12/11 07:28:04;;;;;;;14.73;8.05;;;-2.70;99.90;;;;;;4804879;29;20112;-82
2021/12/11 07:30:31;;;;;;;12.02;7.30;;;-2.70;99.90;;;;;;4819765;29;20092;-83
2021/12/11 07:33:00;;;;;;;10.82;6.55;;;-2.70;99.90;;;;;;4820377;29;20358;-82
2021/12/11 07:35:27;;;;;;;16.27;9.88;;;-2.70;99.90;;;;;;4804698;29;20054;-82
2021/12/11 07:37:53;;;;;;;;;;;-2.60;99.90;;;;;;4819891;29;20080;-83
2021/12/11 07:40:23;;;;;;;19.25;11.13;;;-2.50;99.90;;;;;;4817719;29;19975;-83
2021/12/11 07:42:50;;;;;;;22.20;11.55;;;-2.40;99.90;;;;;;4819197;29;20042;-81
2021/12/11 07:45:17;;;;;;;19.60;11.52;;;-2.40;99.90;;;;;;4819676;29;20069;-82
2021/12/11 07:47:43;;;;;;;18.92;11.07;;;-2.30;99.90;;;;;;4817546;29;20484;-82
2021/12/11 07:50:10;;;;;;;18.10;10.05;;;-2.30;99.90;;;;;;4819680;29;20079;-82
2021/12/11 07:52:35;;;;;;;;;;;-2.30;99.90;;;;;;4804740;29;20053;-82
2021/12/11 07:55:01;;;;;;;12.98;7.85;;;-2.30;99.90;;;;;;4804343;29;21443;-83
2021/12/11 07:57:28;;;;;;;14.25;8.80;;;-2.30;99.90;;;;;;4803703;29;20045;-83
2021/12/11 07:59:54;;;;;;;13.98;8.70;;;-2.30;99.90;;;;;;4819072;29;20042;-82
2021/12/11 08:02:19;;;;;;;16.88;9.25;;;-2.30;99.90;;;;;;4804786;29;20047;-83
2021/12/11 08:04:45;;;;;;;15.50;9.27;;;-2.20;99.90;;;;;;4819479;29;20400;-82
2021/12/11 08:07:11;;;;;;;16.42;10.25;;;-2.20;99.90;;;;;;4803647;29;20519;-82
2021/12/11 08:09:37;;;;;;;14.07;8.98;;;-2.20;99.90;;;;;;4803871;29;20054;-82
2021/12/11 08:12:04;;;;;;;16.23;8.43;;;-2.10;99.90;;;;;;4819108;29;20060;-81
2021/12/11 08:14:30;;;;;;;16.05;9.77;;;-2.10;99.90;;;;;;4816546;29;20066;-83
2021/12/11 08:16:58;;;;;;;14.32;8.57;;;-2.10;99.90;;;;;;4803883;29;20065;-84
2021/12/11 08:19:27;;;;;;;12.07;7.53;;;-2.00;99.90;;;;;;4818336;29;20038;-83
2021/12/11 08:21:55;;;;;;;13.57;7.60;;;-2.00;99.90;;;;;;4803376;29;20166;-82
2021/12/11 08:24:25;;;;;;;14.18;8.07;;;-2.00;99.90;;;;;;4818922;29;20046;-83
2021/12/11 08:26:52;;;;;;;15.48;9.38;;;-1.90;99.90;;;;;;4832039;29;20129;-82
2021/12/11 08:29:19;;;;;;;18.45;11.38;;;-1.90;99.90;;;;;;4819274;29;20058;-82
2021/12/11 08:31:49;;;;;;;14.25;8.73;;;-1.80;99.90;;;;;;4804030;29;20054;-82
2021/12/11 08:34:15;;;;;;;13.98;9.40;;;-1.80;99.90;;;;;;4816826;29;20590;-82
2021/12/11 08:36:43;;;;;;;18.05;10.30;;;-1.70;99.90;;;;;;4822654;29;20038;-82
2021/12/11 08:39:11;;;;;;;20.55;11.93;;;-1.60;99.90;;;;;;4819567;29;20046;-82
2021/12/11 08:41:38;;;;;;;17.50;10.93;;;-1.60;99.90;;;;;;4804188;29;20370;-82
2021/12/11 08:44:09;;;;;;;19.63;11.57;;;-1.50;99.90;;;;;;4818911;29;20152;-83
2021/12/11 08:46:37;;;;;;;22.42;13.13;;;-1.40;99.90;;;;;;4803588;29;20057;-83
2021/12/11 08:49:09;;;;;;;21.15;12.50;;;-1.40;99.90;;;;;;4803122;29;20325;-83
2021/12/11 08:51:42;;;;;;;19.65;11.57;;;-1.30;99.90;;;;;;4819135;29;20046;-83
2021/12/11 08:54:08;;;;;;;18.75;11.43;;;-1.30;99.90;;;;;;4818784;29;20462;-83
2021/12/11 08:56:36;;;;;;;17.92;11.88;;;-1.30;99.90;;;;;;4788353;29;20069;-83
2021/12/11 08:59:07;;;;;;;17.90;10.95;;;-1.20;99.90;;;;;;4803376;29;20035;-82
2021/12/11 09:01:38;;;;;;;19.25;11.73;;;-1.10;99.90;;;;;;4818557;29;20076;-82
2021/12/11 09:04:11;;;;;;;20.50;13.02;;;-1.10;99.90;;;;;;4818850;29;20050;-83
2021/12/11 09:06:42;;;;;;;20.20;13.15;;;-0.90;99.90;;;;;;4818458;29;20042;-83
2021/12/11 09:09:23;;;;;;;22.00;13.63;;;-0.90;99.90;;;;;;4803443;29;20123;-81
2021/12/11 09:12:00;;;;;;;20.50;13.63;;;-0.80;99.90;;;;;;4816592;29;20063;-84
2021/12/11 09:14:40;;;;;;;24.27;13.63;;;-0.70;99.90;;;;;;4816590;29;20457;-84
2021/12/11 09:17:22;;;;;;;24.02;13.70;;;-0.60;99.90;;;;;;4831588;29;20058;-83
2021/12/11 09:20:12;;;;;;;20.75;12.65;;;-0.50;99.90;;;;;;4803995;29;20151;-85
2021/12/11 09:22:48;;;;;;;23.52;13.80;;;-0.40;99.90;;;;;;4806607;29;20065;-84
2021/12/11 09:25:19;;;;;;;20.77;13.07;;;-0.30;99.90;;;;;;4799096;29;20154;-85
2021/12/11 09:28:03;;;;;;;22.30;14.30;;;-0.20;99.90;;;;;;4802497;29;20065;-85
2021/12/11 09:30:48;;;;;;;25.38;15.88;;;-0.10;99.90;;;;;;4837173;29;20125;-83
2021/12/11 09:33:24;;;;;;;20.67;13.85;;;0.00;99.90;;;;;;4825874;29;20414;-81
2021/12/11 09:36:03;;;;;;;22.33;14.38;;;0.10;99.90;;;;;;4824760;29;22322;-83
2021/12/11 09:38:34;;;;;;;21.80;14.02;;;0.20;99.90;;;;;;4808627;29;20046;-83
2021/12/11 09:41:21;;;;;;;20.40;13.40;;;0.20;99.90;;;;;;4822493;29;20050;-82
2021/12/11 09:44:05;;;;;;;22.02;13.30;;;0.20;99.90;;;;;;4818632;29;20125;-81
2021/12/11 09:46:36;;;;;;;24.55;14.65;;;0.30;99.90;;;;;;4822227;29;20397;-82
2021/12/11 09:49:05;;;;;;;23.27;13.85;;;0.40;99.90;;;;;;4822068;29;20442;-82
2021/12/11 09:51:37;;;;;;;24.13;15.00;;;0.40;99.90;;;;;;4804172;29;20054;-83
2021/12/11 09:54:08;;;;;;;23.45;14.73;;;0.40;99.90;;;;;;4823211;29;20045;-80
2021/12/11 09:56:40;;;;;;;21.38;13.30;;;0.40;99.90;;;;;;4821133;29;20047;-82
2021/12/11 09:59:09;;;;;;;22.98;14.45;;;0.50;99.90;;;;;;4822481;29;20852;-81
2021/12/11 10:01:42;;;;;;;19.90;13.57;;;0.50;99.90;;;;;;4811715;29;20066;-82
2021/12/11 10:04:20;;;;;;;21.67;13.70;;;0.60;99.90;;;;;;4830427;29;20129;-82
2021/12/11 10:09:38;;;;;;;23.60;15.50;;;0.80;99.90;;;;;;4817948;29;20386;-81
2021/12/11 10:12:09;;;;;;;25.13;14.68;;;0.90;99.90;;;;;;4808922;29;20069;-82
2021/12/11 10:14:43;;;;;;;24.38;15.48;;;0.90;99.90;;;;;;4823904;29;20501;-83
2021/12/11 10:17:14;;;;;;;27.08;16.85;;;1.00;99.90;;;;;;4818689;29;20073;-83
2021/12/11 10:19:42;;;;;;;27.50;16.33;;;1.10;99.90;;;;;;4831550;29;20046;-82
2021/12/11 10:22:16;;;;;;;25.15;15.85;;;1.20;99.90;;;;;;4819627;29;20556;-82
2021/12/11 10:24:42;;;;;;;22.60;14.95;;;1.20;99.90;;;;;;4819649;29;20111;-80
2021/12/11 10:27:11;;;;;;;;;;;1.30;99.90;;;;;;4801462;29;20054;-84
2021/12/11 10:29:37;;;;;;;29.50;17.02;;;1.40;99.90;;;;;;4804795;29;20012;-81
2021/12/11 10:32:08;;;;;;;29.17;18.30;;;1.40;99.90;;;;;;4820522;29;20042;-81
2021/12/11 10:34:37;;;;;;;26.38;16.38;;;1.50;99.90;;;;;;4823618;29;20039;-81
2021/12/11 10:37:11;;;;;;;32.13;19.60;;;1.60;99.90;;;;;;4814367;29;20485;-84
2021/12/11 10:39:42;;;;;;;29.33;17.95;;;1.80;99.90;;;;;;4813615;29;20047;-82
2021/12/11 10:42:08;;;;;;;28.83;18.27;;;2.00;99.90;;;;;;4800259;29;20043;-83
2021/12/11 10:44:41;;;;;;;27.63;18.08;;;2.10;99.90;;;;;;4813031;29;20602;-82
2021/12/11 10:47:20;;;;;;;29.10;18.45;;;2.20;99.90;;;;;;4816780;29;20038;-83
2021/12/11 10:49:47;;;;;;;30.15;18.77;;;2.40;99.90;;;;;;4797070;29;20046;-85
2021/12/11 10:52:21;;;;;;;29.98;18.73;;;2.60;99.90;;;;;;4818036;29;20123;-85
2021/12/11 10:54:50;;;;;;;29.23;16.75;;;2.70;99.90;;;;;;4799632;29;20070;-84
2021/12/11 10:57:18;;;;;;;25.80;17.35;;;2.90;99.90;;;;;;4804278;29;20046;-86
2021/12/11 10:59:47;;;;;;;27.63;17.83;;;3.10;99.90;;;;;;4805326;29;20034;-85
2021/12/11 11:02:26;;;;;;;26.30;17.55;;;3.20;99.90;;;;;;4816361;29;20142;-85
2021/12/11 11:05:09;;;;;;;30.83;17.48;;;3.30;99.90;;;;;;4806520;29;20086;-86
2021/12/11 11:07:36;;;;;;;25.60;17.25;;;3.60;99.90;;;;;;4819180;29;20069;-85
2021/12/11 11:10:06;;;;;;;29.25;18.02;;;3.90;99.90;;;;;;4795164;29;20085;-86
2021/12/11 11:12:32;;;;;;;27.27;17.38;;;4.20;99.90;;;;;;4820724;29;20046;-86
2021/12/11 11:14:59;;;;;;;25.83;17.30;;;4.30;99.90;;;;;;4832833;29;20496;-86
2021/12/11 11:17:29;;;;;;;25.10;16.52;;;4.30;99.90;;;;;;4819032;29;20042;-81
2021/12/11 11:19:55;;;;;;;25.55;16.20;;;4.00;99.90;;;;;;4824640;29;20093;-82
2021/12/11 11:22:24;;;;;;;;;;;3.90;99.90;;;;;;4793352;29;20051;-82
2021/12/11 11:25:00;;;;;;;29.58;16.27;;;3.80;99.90;;;;;;4802233;29;19940;-81
2021/12/11 11:27:26;;;;;;;25.58;16.05;;;3.70;99.90;;;;;;4802130;29;20457;-82
2021/12/11 11:29:53;;;;;;;24.85;16.13;;;3.70;99.90;;;;;;4834435;29;20102;-81
2021/12/11 11:32:31;;;;;;;25.00;15.68;;;3.70;99.90;;;;;;4819695;29;20078;-81
2021/12/11 11:35:08;;;;;;;26.77;16.95;;;3.70;99.90;;;;;;4815152;29;20082;-82
2021/12/11 11:37:35;;;;;;;26.20;16.52;;;3.70;99.90;;;;;;4836672;29;20050;-82
2021/12/11 11:40:09;;;;;;;22.27;15.82;;;3.70;99.90;;;;;;4821195;29;20469;-82
2021/12/11 11:42:37;;;;;;;23.88;15.60;;;3.70;99.90;;;;;;4818119;29;20046;-82
2021/12/11 11:45:06;;;;;;;25.67;16.42;;;3.60;99.90;;;;;;4830586;29;20057;-81
2021/12/11 11:47:32;;;;;;;23.45;15.27;;;3.60;99.90;;;;;;4814025;29;20510;-81
2021/12/11 11:49:59;;;;;;;21.20;14.55;;;3.60;99.90;;;;;;4819747;29;20054;-79
2021/12/11 11:52:27;;;;;;;23.73;14.13;;;3.60;99.90;;;;;;4801856;29;20046;-80
2021/12/11 11:54:57;;;;;;;22.42;14.57;;;3.50;99.90;;;;;;4821800;29;20126;-82
2021/12/11 11:57:31;;;;;;;18.40;12.70;;;3.50;99.90;;;;;;4825077;29;20056;-81
2021/12/11 11:59:59;;;;;;;22.02;12.82;;;3.50;99.90;;;;;;4809400;29;20039;-82
2021/12/11 12:02:29;;;;;;;21.33;13.30;;;3.50;99.90;;;;;;4810107;29;20469;-82
2021/12/11 12:04:58;;;;;;;23.13;14.40;;;3.40;99.90;;;;;;4803307;29;20050;-82
2021/12/11 12:07:28;;;;;;;20.85;12.98;;;3.40;99.90;;;;;;4819674;29;20042;-82
2021/12/11 12:09:57;;;;;;;20.95;12.20;;;3.40;99.90;;;;;;4803636;29;20839;-83
2021/12/11 12:12:24;;;;;;;21.67;14.10;;;3.40;99.90;;;;;;4829677;29;20127;-81
2021/12/11 12:14:53;;;;;;;21.38;14.93;;;3.30;99.90;;;;;;4818561;29;20058;-83
2021/12/11 12:17:25;;;;;;;20.95;13.75;;;3.30;99.90;;;;;;4791655;29;20949;-83
2021/12/11 12:19:52;;;;;;;19.35;12.93;;;3.30;99.90;;;;;;4820795;29;20045;-83
2021/12/11 12:22:19;;;;;;;20.83;13.48;;;3.30;99.90;;;;;;4803943;29;20086;-82
2021/12/11 12:24:47;;;;;;;21.75;14.52;;;3.30;99.90;;;;;;4817899;29;20050;-83
2021/12/11 12:27:15;;;;;;;24.10;14.38;;;3.40;99.90;;;;;;4819330;29;20121;-82
2021/12/11 12:29:43;;;;;;;21.95;14.25;;;3.40;99.90;;;;;;4818680;29;20111;-83
2021/12/11 12:32:17;;;;;;;20.75;13.23;;;3.60;99.90;;;;;;4818682;29;20050;-83
2021/12/11 12:34:43;;;;;;;23.02;14.85;;;3.70;99.90;;;;;;4819361;29;20042;-83
2021/12/11 12:37:10;;;;;;;20.45;13.57;;;3.80;99.90;;;;;;4803920;29;20408;-83
2021/12/11 12:39:43;;;;;;;21.73;13.68;;;3.80;99.90;;;;;;4818862;29;20482;-83
2021/12/11 12:42:19;;;;;;;20.83;13.57;;;3.80;99.90;;;;;;4803501;29;20035;-83
2021/12/11 12:44:53;;;;;;;19.20;12.32;;;3.80;99.90;;;;;;4802100;29;20095;-83
2021/12/11 12:47:25;;;;;;;18.45;12.15;;;3.90;99.90;;;;;;4818683;29;20528;-83
2021/12/11 12:49:53;;;;;;;21.67;14.00;;;4.00;99.90;;;;;;4803635;29;20042;-83
2021/12/11 12:52:27;;;;;;;19.48;11.85;;;4.10;99.90;;;;;;4788820;29;20061;-84
2021/12/11 12:54:53;;;;;;;17.95;12.70;;;4.20;99.90;;;;;;4803169;29;20057;-83
2021/12/11 12:57:34;;;;;;;22.80;13.75;;;4.10;99.90;;;;;;4803951;29;20056;-83
2021/12/11 13:00:44;;;;;;;19.83;13.13;;;4.10;99.90;;;;;;4818641;29;20398;-83
2021/12/11 13:03:26;;;;;;;21.90;13.48;;;4.00;99.90;;;;;;4772758;29;20126;-82
2021/12/11 13:06:18;;;;;;;19.13;12.85;;;3.90;99.90;;;;;;4768034;29;20055;-83
2021/12/11 13:08:56;;;;;;;20.02;13.13;;;3.80;99.90;;;;;;4806034;29;20058;-84
2021/12/11 13:11:29;;;;;;;18.30;12.15;;;3.80;99.90;;;;;;4836209;29;20424;-83
2021/12/11 13:13:57;;;;;;;20.48;13.45;;;3.80;99.90;;;;;;4837497;29;20088;-83
2021/12/11 13:16:36;;;;;;;19.00;13.40;;;3.80;99.90;;;;;;4822040;29;20050;-83